createdAt,value
2023-09-13T00:00:16.558Z,21.13
2023-09-13T00:02:43.463Z,21.16
2023-09-13T00:05:10.686Z,21.17
2023-09-13T00:07:37.977Z,21.20
2023-09-13T00:10:06.322Z,21.19
2023-09-13T00:12:33.227Z,21.20
2023-09-13T00:15:02.247Z,21.20
2023-09-13T00:17:29.200Z,21.18
2023-09-13T00:19:57.371Z,21.16
2023-09-13T00:22:25.033Z,21.15
2023-09-13T00:24:52.040Z,21.15
2023-09-13T00:27:19.477Z,21.15
2023-09-13T00:29:46.529Z,21.13
2023-09-13T00:32:15.831Z,21.13
2023-09-13T00:34:42.641Z,21.11
2023-09-13T00:37:09.532Z,21.13
2023-09-13T00:39:39.559Z,21.16
2023-09-13T00:42:06.955Z,21.16
2023-09-13T00:44:34.287Z,21.15
2023-09-13T00:47:07.064Z,21.13
2023-09-13T00:50:06.849Z,21.13
2023-09-13T00:52:47.605Z,21.09
2023-09-13T00:55:25.520Z,21.07
2023-09-13T00:58:03.019Z,21.07
2023-09-13T01:00:31.717Z,21.07
2023-09-13T01:03:03.110Z,21.07
2023-09-13T01:05:32.304Z,21.05
2023-09-13T01:07:59.404Z,21.06
2023-09-13T01:10:28.508Z,21.06
2023-09-13T01:17:06.253Z,21.04
2023-09-13T01:19:56.763Z,21.01
2023-09-13T01:23:06.123Z,20.97
2023-09-13T01:25:55.540Z,20.96
2023-09-13T01:29:09.152Z,20.95
2023-09-13T01:31:38.992Z,20.94
2023-09-13T01:34:07.134Z,20.92
2023-09-13T01:36:40.476Z,20.93
2023-09-13T01:39:07.572Z,20.94
2023-09-13T01:41:38.988Z,20.96
2023-09-13T01:44:08.419Z,20.98
2023-09-13T01:46:37.042Z,20.96
2023-09-13T01:49:06.359Z,20.93
2023-09-13T01:51:34.503Z,20.92
2023-09-13T01:54:01.310Z,20.92
2023-09-13T01:56:28.472Z,20.92
2023-09-13T01:58:55.486Z,20.91
2023-09-13T02:01:24.303Z,20.91
2023-09-13T02:03:51.237Z,20.91
2023-09-13T02:06:19.250Z,20.92
2023-09-13T02:08:48.457Z,20.93
2023-09-13T02:11:15.569Z,20.94
2023-09-13T02:13:44.898Z,20.92
2023-09-13T02:16:13.212Z,20.92
2023-09-13T02:18:41.682Z,20.92
2023-09-13T02:21:11.161Z,20.91
2023-09-13T02:23:38.561Z,20.91
2023-09-13T02:26:05.283Z,20.88
2023-09-13T02:28:32.443Z,20.86
2023-09-13T02:30:59.291Z,20.86
2023-09-13T02:33:26.061Z,20.86
2023-09-13T02:35:54.151Z,20.87
2023-09-13T02:38:23.213Z,20.87
2023-09-13T02:40:51.303Z,20.85
2023-09-13T02:43:18.050Z,20.85
2023-09-13T02:45:45.127Z,20.84
2023-09-13T02:48:11.995Z,20.83
2023-09-13T02:50:41.235Z,20.84
2023-09-13T02:53:09.412Z,20.83
2023-09-13T02:55:37.676Z,20.81
2023-09-13T02:58:07.329Z,20.81
2023-09-13T03:00:34.285Z,20.81
2023-09-13T03:03:01.271Z,20.79
2023-09-13T03:05:28.098Z,20.79
2023-09-13T03:07:57.995Z,20.78
2023-09-13T03:10:27.603Z,20.78
2023-09-13T03:12:54.741Z,20.78
2023-09-13T03:15:21.487Z,20.77
2023-09-13T03:17:48.302Z,20.76
2023-09-13T03:20:16.327Z,20.76
2023-09-13T03:22:43.029Z,20.75
2023-09-13T03:25:10.285Z,20.74
2023-09-13T03:27:38.448Z,20.73
2023-09-13T03:30:06.418Z,20.74
2023-09-13T03:32:33.136Z,20.73
2023-09-13T03:34:59.924Z,20.71
2023-09-13T03:37:26.765Z,20.70
2023-09-13T03:39:53.648Z,20.71
2023-09-13T03:42:21.842Z,20.71
2023-09-13T03:44:49.973Z,20.70
2023-09-13T03:47:16.822Z,20.69
2023-09-13T03:49:43.575Z,20.69
2023-09-13T03:52:10.456Z,20.70
2023-09-13T03:54:37.743Z,20.70
2023-09-13T03:57:04.756Z,20.71
2023-09-13T03:59:31.550Z,20.73
2023-09-13T04:01:59.995Z,20.75
2023-09-13T04:04:27.557Z,20.77
2023-09-13T04:06:54.572Z,20.77
2023-09-13T04:09:22.727Z,20.78
2023-09-13T04:11:49.593Z,20.78
2023-09-13T04:14:16.421Z,20.76
2023-09-13T04:16:43.437Z,20.77
2023-09-13T04:19:11.877Z,20.76
2023-09-13T04:21:38.697Z,20.76
2023-09-13T04:24:14.648Z,20.75
2023-09-13T04:26:41.958Z,20.75
2023-09-13T04:29:08.934Z,20.74
2023-09-13T04:31:35.885Z,20.75
2023-09-13T04:34:04.455Z,20.74
2023-09-13T04:36:32.768Z,20.74
2023-09-13T04:39:01.193Z,20.73
2023-09-13T04:41:28.038Z,20.71
2023-09-13T04:43:54.763Z,20.69
2023-09-13T04:46:21.872Z,20.67
2023-09-13T04:48:48.845Z,20.65
2023-09-13T04:51:15.698Z,20.64
2023-09-13T04:53:44.013Z,20.63
2023-09-13T04:56:10.940Z,20.61
2023-09-13T04:58:39.114Z,20.61
2023-09-13T05:01:06.167Z,20.61
2023-09-13T05:03:33.139Z,20.60
2023-09-13T05:06:18.720Z,20.58
2023-09-13T05:08:51.500Z,20.58
2023-09-13T05:11:18.289Z,20.58
2023-09-13T05:13:48.634Z,20.55
2023-09-13T05:16:15.815Z,20.55
2023-09-13T05:18:42.581Z,20.54
2023-09-13T05:21:09.513Z,20.53
2023-09-13T05:23:36.440Z,20.49
2023-09-13T05:26:04.938Z,20.48
2023-09-13T05:28:35.351Z,20.46
2023-09-13T05:31:02.779Z,20.45
2023-09-13T05:33:29.685Z,20.44
2023-09-13T05:35:56.558Z,20.42
2023-09-13T05:38:23.611Z,20.42
2023-09-13T05:40:50.516Z,20.41
2023-09-13T05:43:19.266Z,20.42
2023-09-13T05:45:46.115Z,20.41
2023-09-13T05:48:13.529Z,20.39
2023-09-13T05:50:40.309Z,20.38
2023-09-13T05:53:07.175Z,20.38
2023-09-13T05:55:34.426Z,20.36
2023-09-13T05:58:01.757Z,20.36
2023-09-13T06:00:30.008Z,20.36
2023-09-13T06:02:57.059Z,20.32
2023-09-13T06:05:23.807Z,20.31
2023-09-13T06:07:51.505Z,20.32
2023-09-13T06:10:18.497Z,20.31
2023-09-13T06:12:46.431Z,20.31
2023-09-13T06:15:13.233Z,20.30
2023-09-13T06:17:41.337Z,20.31
2023-09-13T06:20:08.794Z,20.29
2023-09-13T06:22:35.710Z,20.31
2023-09-13T06:25:11.732Z,20.31
2023-09-13T06:27:38.782Z,20.28
2023-09-13T06:30:09.166Z,20.26
2023-09-13T06:32:41.911Z,20.26
2023-09-13T06:35:15.645Z,20.25
2023-09-13T06:37:46.041Z,20.25
2023-09-13T06:40:13.845Z,20.27
2023-09-13T06:42:58.492Z,20.29
2023-09-13T06:45:28.002Z,20.30
2023-09-13T06:47:55.378Z,20.30
2023-09-13T06:55:29.228Z,20.27
2023-09-13T06:58:00.271Z,20.27
2023-09-13T07:00:40.421Z,20.26
2023-09-13T07:03:17.711Z,20.28
2023-09-13T07:05:46.357Z,20.25
2023-09-13T07:08:13.103Z,20.02
2023-09-13T07:10:39.879Z,19.79
2023-09-13T07:13:06.668Z,19.67
2023-09-13T07:15:33.522Z,19.47
2023-09-13T07:18:01.156Z,19.28
2023-09-13T07:20:28.152Z,19.08
2023-09-13T07:22:56.424Z,18.80
2023-09-13T07:25:23.269Z,18.63
2023-09-13T07:27:50.034Z,18.51
2023-09-13T07:30:17.071Z,18.41
2023-09-13T07:32:43.840Z,18.30
2023-09-13T07:35:10.673Z,18.17
2023-09-13T07:37:37.886Z,18.06
2023-09-13T07:40:07.269Z,18.04
2023-09-13T07:42:34.068Z,18.03
2023-09-13T07:45:00.816Z,18.03
2023-09-13T07:47:29.061Z,17.98
2023-09-13T07:49:59.218Z,17.92
2023-09-13T07:52:28.255Z,17.95
2023-09-13T07:54:58.996Z,17.95
2023-09-13T07:57:27.163Z,17.90
2023-09-13T07:59:53.832Z,17.90
2023-09-13T08:02:22.022Z,17.91
2023-09-13T08:04:51.108Z,17.92
2023-09-13T08:07:17.945Z,17.93
2023-09-13T08:09:44.692Z,17.95
2023-09-13T08:12:11.435Z,17.93
2023-09-13T08:14:39.612Z,17.92
2023-09-13T08:17:06.467Z,17.91
2023-09-13T08:19:33.278Z,17.89
2023-09-13T08:21:59.989Z,17.91
2023-09-13T08:24:26.785Z,17.92
2023-09-13T08:26:53.592Z,17.88
2023-09-13T08:29:20.324Z,17.88
2023-09-13T08:31:48.499Z,17.86
2023-09-13T08:34:15.333Z,17.83
2023-09-13T08:36:42.143Z,17.80
2023-09-13T08:39:09.007Z,17.81
2023-09-13T08:41:36.036Z,17.81
2023-09-13T08:44:04.977Z,17.83
2023-09-13T08:46:33.065Z,17.86
2023-09-13T08:49:03.688Z,17.86
2023-09-13T08:51:30.952Z,17.84
2023-09-13T08:53:57.811Z,17.83
2023-09-13T08:56:25.041Z,17.81
2023-09-13T08:58:52.831Z,17.83
2023-09-13T09:01:24.195Z,17.86
2023-09-13T09:03:51.414Z,17.87
2023-09-13T09:06:21.358Z,17.88
2023-09-13T09:08:50.691Z,17.88
2023-09-13T09:11:22.586Z,17.90
2023-09-13T09:13:49.870Z,17.91
2023-09-13T09:16:18.364Z,17.96
2023-09-13T09:18:47.300Z,17.98
2023-09-13T09:21:14.835Z,18.00
2023-09-13T09:23:43.428Z,18.03
2023-09-13T09:26:10.693Z,18.08
2023-09-13T09:28:37.490Z,18.12
2023-09-13T09:31:05.175Z,18.17
2023-09-13T09:33:33.222Z,18.25
2023-09-13T09:36:01.474Z,18.29
2023-09-13T09:38:30.794Z,18.32
2023-09-13T09:41:01.620Z,18.39
2023-09-13T09:43:28.419Z,18.44
2023-09-13T09:45:55.692Z,18.51
2023-09-13T09:48:22.596Z,18.56
2023-09-13T09:50:52.411Z,18.61
2023-09-13T09:53:20.918Z,18.68
2023-09-13T09:55:47.932Z,18.74
2023-09-13T09:58:17.016Z,18.80
2023-09-13T10:00:47.970Z,18.88
2023-09-13T10:03:19.200Z,18.93
2023-09-13T10:05:57.343Z,19.00
2023-09-13T10:08:43.697Z,19.02
2023-09-13T10:11:14.613Z,19.05
2023-09-13T10:13:47.068Z,19.07
2023-09-13T10:16:15.646Z,19.08
2023-09-13T10:18:45.974Z,19.11
2023-09-13T10:21:15.271Z,19.11
2023-09-13T10:23:43.215Z,19.15
2023-09-13T10:26:11.345Z,19.18
2023-09-13T10:28:41.156Z,19.21
2023-09-13T10:31:19.645Z,19.18
2023-09-13T10:33:52.520Z,19.16
2023-09-13T10:36:32.382Z,19.13
2023-09-13T10:39:10.280Z,19.12
2023-09-13T10:41:47.907Z,19.17
2023-09-13T10:44:16.169Z,19.21
2023-09-13T10:46:44.533Z,19.24
2023-09-13T10:49:12.216Z,19.26
2023-09-13T10:51:41.393Z,19.25
2023-09-13T10:54:09.850Z,19.29
2023-09-13T10:56:36.834Z,19.33
2023-09-13T10:59:06.486Z,19.38
2023-09-13T11:01:35.371Z,19.37
2023-09-13T11:04:06.155Z,19.33
2023-09-13T11:06:34.457Z,19.27
2023-09-13T11:09:12.224Z,19.24
2023-09-13T11:11:38.979Z,19.24
2023-09-13T11:14:11.284Z,19.28
2023-09-13T11:16:41.160Z,19.29
2023-09-13T11:19:11.265Z,19.28
2023-09-13T11:21:48.539Z,19.26
2023-09-13T11:24:28.463Z,19.22
2023-09-13T11:27:10.968Z,19.21
2023-09-13T11:29:42.494Z,19.20
2023-09-13T11:32:17.675Z,19.22
2023-09-13T11:34:46.864Z,19.24
2023-09-13T11:37:15.089Z,19.23
2023-09-13T11:39:43.050Z,19.21
2023-09-13T11:42:17.981Z,19.15
2023-09-13T11:45:03.300Z,19.15
2023-09-13T11:47:35.016Z,19.16
2023-09-13T11:50:12.995Z,19.22
2023-09-13T11:53:11.204Z,19.28
2023-09-13T11:56:03.017Z,19.37
2023-09-13T11:58:39.743Z,19.41
2023-09-13T12:01:15.932Z,19.44
2023-09-13T12:04:13.277Z,19.47
2023-09-13T12:06:44.321Z,19.49
2023-09-13T12:09:17.937Z,19.48
2023-09-13T12:11:49.123Z,19.49
2023-09-13T12:14:31.036Z,19.50
2023-09-13T12:17:06.760Z,19.53
2023-09-13T12:19:37.420Z,19.59
2023-09-13T12:22:05.885Z,19.61
2023-09-13T12:24:33.019Z,19.62
2023-09-13T12:26:59.861Z,19.61
2023-09-13T12:29:26.691Z,19.64
2023-09-13T12:31:58.715Z,19.68
2023-09-13T12:34:26.070Z,19.74
2023-09-13T12:36:55.310Z,19.76
2023-09-13T12:39:23.366Z,19.75
2023-09-13T12:41:50.242Z,19.72
2023-09-13T12:44:19.526Z,19.70
2023-09-13T12:46:46.702Z,19.66
2023-09-13T12:49:13.528Z,19.61
2023-09-13T12:51:41.649Z,19.52
2023-09-13T12:54:14.568Z,19.41
2023-09-13T12:56:42.983Z,19.31
2023-09-13T12:59:10.233Z,19.24
2023-09-13T13:01:37.280Z,19.21
2023-09-13T13:04:08.374Z,19.18
2023-09-13T13:06:54.142Z,19.15
2023-09-13T13:09:25.410Z,19.10
2023-09-13T13:11:54.146Z,19.09
2023-09-13T13:14:24.976Z,19.10
2023-09-13T13:16:56.372Z,19.12
2023-09-13T13:19:47.821Z,19.14
2023-09-13T13:22:18.807Z,19.18
2023-09-13T13:24:46.560Z,19.16
2023-09-13T13:27:14.706Z,19.09
2023-09-13T13:29:41.450Z,19.06
2023-09-13T13:32:08.938Z,19.03
2023-09-13T13:34:36.063Z,18.98
2023-09-13T13:37:03.013Z,18.91
2023-09-13T13:39:29.794Z,18.88
2023-09-13T13:41:56.685Z,18.87
2023-09-13T13:44:24.871Z,18.90
2023-09-13T13:46:51.608Z,18.89
2023-09-13T13:49:19.597Z,18.90
2023-09-13T13:51:47.722Z,18.91
2023-09-13T13:54:15.629Z,18.95
2023-09-13T13:56:44.123Z,18.96
2023-09-13T13:59:12.122Z,19.00
2023-09-13T14:01:40.707Z,19.03
2023-09-13T14:04:07.740Z,19.06
2023-09-13T14:06:34.642Z,19.08
2023-09-13T14:09:07.436Z,19.10
2023-09-13T14:11:34.865Z,19.10
2023-09-13T14:14:01.762Z,19.13
2023-09-13T14:16:28.676Z,19.17
2023-09-13T14:18:56.893Z,19.24
2023-09-13T14:21:23.729Z,19.28
2023-09-13T14:23:50.507Z,19.32
2023-09-13T14:26:17.303Z,19.34
2023-09-13T14:28:44.094Z,19.35
2023-09-13T14:31:14.332Z,19.36
2023-09-13T14:33:43.849Z,19.39
2023-09-13T14:36:12.871Z,19.44
2023-09-13T14:38:40.157Z,19.50
2023-09-13T14:41:08.066Z,19.55
2023-09-13T14:43:34.820Z,19.57
2023-09-13T14:46:01.658Z,19.58
2023-09-13T14:48:28.814Z,19.59
2023-09-13T14:50:55.664Z,19.62
2023-09-13T14:53:23.929Z,19.64
2023-09-13T14:55:56.461Z,19.64
2023-09-13T14:58:23.690Z,19.64
2023-09-13T15:00:50.681Z,19.63
2023-09-13T15:03:17.495Z,19.65
2023-09-13T15:05:44.368Z,19.67
2023-09-13T15:08:11.485Z,19.71
2023-09-13T15:10:39.700Z,19.76
2023-09-13T15:13:07.356Z,19.80
2023-09-13T15:15:34.222Z,19.85
2023-09-13T15:18:01.479Z,19.87
2023-09-13T15:20:29.038Z,19.88
2023-09-13T15:22:55.922Z,19.91
2023-09-13T15:25:22.781Z,19.92
2023-09-13T15:27:51.166Z,19.92
2023-09-13T15:30:18.093Z,19.92
2023-09-13T15:32:46.001Z,19.90
2023-09-13T15:35:13.038Z,19.91
2023-09-13T15:37:39.870Z,19.91
2023-09-13T15:40:12.808Z,19.90
2023-09-13T15:42:40.694Z,19.90
2023-09-13T15:45:11.437Z,19.94
2023-09-13T15:47:38.851Z,19.97
2023-09-13T15:50:06.310Z,19.99
2023-09-13T15:52:33.155Z,20.00
2023-09-13T15:55:00.216Z,20.03
2023-09-13T15:57:27.246Z,20.06
2023-09-13T15:59:54.423Z,20.07
2023-09-13T16:02:25.942Z,20.09
2023-09-13T16:04:52.799Z,20.09
2023-09-13T16:07:19.935Z,20.08
2023-09-13T16:09:46.730Z,20.06
2023-09-13T16:12:13.664Z,20.05
2023-09-13T16:14:40.821Z,20.04
2023-09-13T16:17:08.320Z,20.02
2023-09-13T16:19:36.389Z,20.05
2023-09-13T16:22:05.265Z,20.04
2023-09-13T16:24:32.368Z,20.05
2023-09-13T16:26:59.209Z,20.04
2023-09-13T16:29:26.507Z,20.03
2023-09-13T16:31:53.388Z,20.01
2023-09-13T16:34:20.101Z,20.01
2023-09-13T16:36:48.359Z,20.00
2023-09-13T16:39:17.252Z,20.00
2023-09-13T16:41:44.453Z,20.00
2023-09-13T16:44:11.207Z,20.01
2023-09-13T16:46:38.278Z,19.99
2023-09-13T16:49:05.396Z,19.97
2023-09-13T16:51:32.285Z,19.95
2023-09-13T16:54:00.630Z,19.94
2023-09-13T16:56:27.503Z,19.90
2023-09-13T16:58:55.942Z,19.91
2023-09-13T17:01:22.760Z,19.86
2023-09-13T17:03:50.215Z,19.82
2023-09-13T17:06:17.462Z,19.80
2023-09-13T17:08:44.756Z,19.77
2023-09-13T17:11:14.502Z,19.74
2023-09-13T17:13:42.193Z,19.73
2023-09-13T17:16:10.085Z,19.71
2023-09-13T17:18:37.095Z,19.65
2023-09-13T17:21:05.012Z,19.60
2023-09-13T17:23:31.976Z,19.59
2023-09-13T17:25:59.167Z,19.58
2023-09-13T17:28:27.357Z,19.58
2023-09-13T17:30:54.359Z,19.54
2023-09-13T17:33:21.250Z,19.51
2023-09-13T17:35:49.097Z,19.46
2023-09-13T17:38:18.034Z,19.40
2023-09-13T17:40:45.358Z,19.38
2023-09-13T17:43:12.207Z,19.34
2023-09-13T17:45:40.719Z,19.32
2023-09-13T17:48:07.835Z,19.29
2023-09-13T17:50:35.054Z,19.28
2023-09-13T17:53:07.568Z,19.24
2023-09-13T17:55:35.607Z,19.22
2023-09-13T17:58:02.517Z,19.17
2023-09-13T18:00:29.665Z,19.15
2023-09-13T18:02:58.246Z,19.13
2023-09-13T18:05:25.231Z,19.09
2023-09-13T18:07:56.349Z,19.04
2023-09-13T18:10:23.375Z,19.02
2023-09-13T18:12:50.163Z,19.01
2023-09-13T18:15:17.199Z,18.98
2023-09-13T18:17:53.726Z,18.94
2023-09-13T18:20:23.373Z,18.93
2023-09-13T18:22:50.294Z,18.92
2023-09-13T18:25:17.391Z,18.90
2023-09-13T18:27:44.411Z,18.85
2023-09-13T18:30:12.217Z,18.80
2023-09-13T18:32:39.121Z,18.76
2023-09-13T18:35:07.060Z,18.72
2023-09-13T18:37:36.207Z,18.68
2023-09-13T18:40:04.838Z,18.67
2023-09-13T18:42:35.896Z,18.63
2023-09-13T18:45:03.903Z,18.56
2023-09-13T18:47:30.765Z,18.52
2023-09-13T18:49:57.831Z,18.48
2023-09-13T18:52:24.600Z,18.45
2023-09-13T18:54:52.793Z,18.42
2023-09-13T18:57:19.894Z,18.37
2023-09-13T18:59:47.080Z,18.35
2023-09-13T19:02:13.873Z,18.32
2023-09-13T19:04:41.061Z,18.30
2023-09-13T19:07:10.794Z,18.31
2023-09-13T19:09:39.729Z,18.29
2023-09-13T19:12:09.927Z,18.30
2023-09-13T19:14:36.673Z,18.25
2023-09-13T19:17:04.088Z,18.26
2023-09-13T19:19:32.922Z,18.24
2023-09-13T19:21:59.671Z,18.24
2023-09-13T19:24:26.440Z,18.24
2023-09-13T19:26:53.163Z,18.25
2023-09-13T19:29:21.472Z,18.23
2023-09-13T19:31:48.170Z,18.21
2023-09-13T19:34:15.056Z,18.20
2023-09-13T19:36:42.226Z,18.19
2023-09-13T19:39:09.217Z,18.16
2023-09-13T19:41:36.232Z,18.14
2023-09-13T19:44:03.052Z,18.12
2023-09-13T19:46:31.239Z,18.10
2023-09-13T19:48:58.029Z,18.10
2023-09-13T19:51:24.857Z,18.07
2023-09-13T19:53:54.674Z,18.06
2023-09-13T19:56:22.089Z,18.04
2023-09-13T19:58:50.277Z,18.03
2023-09-13T20:01:18.259Z,18.01
2023-09-13T20:03:47.519Z,17.98
2023-09-13T20:06:16.380Z,17.96
2023-09-13T20:08:43.804Z,17.93
2023-09-13T20:11:10.919Z,17.92
2023-09-13T20:13:40.482Z,17.88
2023-09-13T20:16:07.768Z,17.86
2023-09-13T20:18:34.478Z,17.84
2023-09-13T20:21:02.838Z,17.82
2023-09-13T20:23:30.366Z,17.81
2023-09-13T20:25:58.043Z,17.80
2023-09-13T20:28:27.350Z,17.80
2023-09-13T20:30:55.474Z,17.78
2023-09-13T20:33:22.691Z,17.76
2023-09-13T20:35:50.323Z,17.75
2023-09-13T20:38:19.165Z,17.68
2023-09-13T20:40:46.086Z,17.60
2023-09-13T20:43:13.236Z,17.52
2023-09-13T20:45:40.555Z,17.46
2023-09-13T20:48:08.387Z,17.44
2023-09-13T20:50:35.473Z,17.41
2023-09-13T20:53:02.510Z,17.42
2023-09-13T20:55:31.254Z,17.44
2023-09-13T20:58:00.246Z,17.46
2023-09-13T21:00:27.265Z,17.45
2023-09-13T21:02:54.200Z,17.44
2023-09-13T21:05:20.902Z,17.43
2023-09-13T21:07:47.660Z,17.43
2023-09-13T21:10:15.518Z,17.43
2023-09-13T21:12:43.932Z,17.42
2023-09-13T21:15:11.525Z,17.40
2023-09-13T21:17:38.592Z,17.38
2023-09-13T21:20:06.879Z,17.36
2023-09-13T21:22:33.708Z,17.37
2023-09-13T21:25:02.014Z,17.35
2023-09-13T21:27:28.963Z,17.32
2023-09-13T21:29:57.207Z,17.33
2023-09-13T21:32:23.907Z,17.35
2023-09-13T21:35:01.875Z,17.30
2023-09-13T21:37:32.182Z,17.24
2023-09-13T21:40:01.281Z,17.21
2023-09-13T21:42:28.083Z,17.19
2023-09-13T21:44:57.311Z,17.17
2023-09-13T21:47:24.081Z,17.14
2023-09-13T21:49:51.021Z,17.11
2023-09-13T21:52:18.041Z,17.09
2023-09-13T21:54:47.855Z,17.09
2023-09-13T21:57:15.279Z,17.09
2023-09-13T21:59:42.109Z,17.05
2023-09-13T22:02:10.709Z,17.01
2023-09-13T22:04:37.487Z,16.97
2023-09-13T22:07:04.483Z,16.95
2023-09-13T22:09:31.622Z,16.94
2023-09-13T22:11:58.671Z,16.94
2023-09-13T22:14:25.380Z,16.89
2023-09-13T22:16:52.097Z,16.88
2023-09-13T22:19:20.250Z,16.87
2023-09-13T22:21:47.021Z,16.86
2023-09-13T22:24:14.040Z,16.84
2023-09-13T22:26:40.967Z,16.86
2023-09-13T22:29:07.787Z,16.87
2023-09-13T22:31:34.601Z,16.87
2023-09-13T22:34:01.615Z,16.81
2023-09-13T22:36:29.772Z,16.83
2023-09-13T22:39:06.551Z,16.85
2023-09-13T22:41:37.883Z,16.84
2023-09-13T22:44:05.985Z,16.83
2023-09-13T22:46:33.097Z,16.80
2023-09-13T22:49:00.190Z,16.76
2023-09-13T22:51:27.243Z,16.74
2023-09-13T22:53:57.332Z,16.71
2023-09-13T22:56:24.441Z,16.69
2023-09-13T22:58:51.402Z,16.66
2023-09-13T23:01:18.253Z,16.64
2023-09-13T23:03:47.017Z,16.60
2023-09-13T23:06:14.039Z,16.58
2023-09-13T23:08:40.944Z,16.54
2023-09-13T23:11:09.278Z,16.49
2023-09-13T23:13:36.137Z,16.49
2023-09-13T23:16:05.410Z,16.47
2023-09-13T23:18:33.496Z,16.45
2023-09-13T23:21:00.980Z,16.45
2023-09-13T23:23:28.115Z,16.42
2023-09-13T23:25:59.397Z,16.39
2023-09-13T23:28:27.681Z,16.37
2023-09-13T23:31:02.720Z,16.38
2023-09-13T23:33:29.830Z,16.36
2023-09-13T23:35:56.567Z,16.31
2023-09-13T23:38:23.345Z,16.27
2023-09-13T23:40:50.074Z,16.21
2023-09-13T23:43:16.827Z,16.18
2023-09-13T23:45:46.432Z,16.15
2023-09-13T23:48:13.665Z,16.12
2023-09-13T23:50:40.609Z,16.11
2023-09-13T23:53:07.351Z,16.13
2023-09-13T23:55:34.080Z,16.14
2023-09-13T23:58:00.828Z,16.18
